sensor_id;sensor_type;location;lat;lon;timestamp;temperature;humidity
31725;DHT22;18306;40.960;14.836;2023-08-30T00:00:02;23.90;99.90
31725;DHT22;18306;40.960;14.836;2023-08-30T00:02:33;24.00;99.90
31725;DHT22;18306;40.960;14.836;2023-08-30T00:05:01;24.20;99.90
31725;DHT22;18306;40.960;14.836;2023-08-30T00:07:29;24.20;99.90
31725;DHT22;18306;40.960;14.836;2023-08-30T00:09:57;24.30;99.90
31725;DHT22;18306;40.960;14.836;2023-08-30T00:12:25;24.30;99.90
31725;DHT22;18306;40.960;14.836;2023-08-30T00:14:52;24.30;99.90
31725;DHT22;18306;40.960;14.836;2023-08-30T00:17:19;24.30;99.90
31725;DHT22;18306;40.960;14.836;2023-08-30T00:19:46;24.30;99.90
31725;DHT22;18306;40.960;14.836;2023-08-30T00:22:15;24.30;99.90
31725;DHT22;18306;40.960;14.836;2023-08-30T00:24:42;24.30;99.90
31725;DHT22;18306;40.960;14.836;2023-08-30T00:27:08;24.30;99.90
31725;DHT22;18306;40.960;14.836;2023-08-30T00:29:36;24.30;99.90
31725;DHT22;18306;40.960;14.836;2023-08-30T00:32:03;24.30;99.90
31725;DHT22;18306;40.960;14.836;2023-08-30T00:34:31;24.30;99.90
31725;DHT22;18306;40.960;14.836;2023-08-30T00:37:02;24.40;99.90
31725;DHT22;18306;40.960;14.836;2023-08-30T00:39:41;24.40;99.90
31725;DHT22;18306;40.960;14.836;2023-08-30T00:42:15;24.50;99.90
31725;DHT22;18306;40.960;14.836;2023-08-30T00:44:46;24.60;99.90
31725;DHT22;18306;40.960;14.836;2023-08-30T00:47:14;24.60;99.90
31725;DHT22;18306;40.960;14.836;2023-08-30T00:49:42;24.60;99.90
31725;DHT22;18306;40.960;14.836;2023-08-30T00:52:10;24.50;99.90
31725;DHT22;18306;40.960;14.836;2023-08-30T00:54:38;24.40;99.90
31725;DHT22;18306;40.960;14.836;2023-08-30T00:57:06;24.30;99.90
31725;DHT22;18306;40.960;14.836;2023-08-30T00:59:34;24.30;99.90
31725;DHT22;18306;40.960;14.836;2023-08-30T01:02:02;24.30;99.80
31725;DHT22;18306;40.960;14.836;2023-08-30T01:04:30;24.20;99.50
31725;DHT22;18306;40.960;14.836;2023-08-30T01:06:57;24.30;99.80
31725;DHT22;18306;40.960;14.836;2023-08-30T01:09:24;24.10;99.60
31725;DHT22;18306;40.960;14.836;2023-08-30T01:14:45;24.40;99.50
31725;DHT22;18306;40.960;14.836;2023-08-30T01:17:17;24.50;99.50
31725;DHT22;18306;40.960;14.836;2023-08-30T01:19:53;24.30;99.50
31725;DHT22;18306;40.960;14.836;2023-08-30T01:22:46;24.30;99.40
31725;DHT22;18306;40.960;14.836;2023-08-30T01:27:59;24.30;99.10
31725;DHT22;18306;40.960;14.836;2023-08-30T01:30:28;24.30;99.20
31725;DHT22;18306;40.960;14.836;2023-08-30T01:32:56;24.30;99.20
31725;DHT22;18306;40.960;14.836;2023-08-30T01:35:24;24.30;99.10
31725;DHT22;18306;40.960;14.836;2023-08-30T01:37:51;24.20;98.80
31725;DHT22;18306;40.960;14.836;2023-08-30T01:40:20;24.20;98.80
31725;DHT22;18306;40.960;14.836;2023-08-30T01:42:48;24.30;98.80
31725;DHT22;18306;40.960;14.836;2023-08-30T01:45:19;24.20;98.60
31725;DHT22;18306;40.960;14.836;2023-08-30T01:47:48;24.30;98.70
31725;DHT22;18306;40.960;14.836;2023-08-30T01:50:19;24.30;98.70
31725;DHT22;18306;40.960;14.836;2023-08-30T01:52:48;24.30;98.60
31725;DHT22;18306;40.960;14.836;2023-08-30T01:55:15;24.30;98.60
31725;DHT22;18306;40.960;14.836;2023-08-30T01:57:45;24.30;98.60
31725;DHT22;18306;40.960;14.836;2023-08-30T02:00:13;24.30;98.70
31725;DHT22;18306;40.960;14.836;2023-08-30T02:02:43;24.20;98.70
31725;DHT22;18306;40.960;14.836;2023-08-30T02:05:10;24.20;98.70
31725;DHT22;18306;40.960;14.836;2023-08-30T02:07:47;24.30;98.70
31725;DHT22;18306;40.960;14.836;2023-08-30T02:10:34;24.40;98.60
31725;DHT22;18306;40.960;14.836;2023-08-30T02:13:03;24.40;98.70
31725;DHT22;18306;40.960;14.836;2023-08-30T02:15:33;24.50;98.60
31725;DHT22;18306;40.960;14.836;2023-08-30T02:18:03;24.60;98.40
31725;DHT22;18306;40.960;14.836;2023-08-30T02:20:30;24.80;98.30
31725;DHT22;18306;40.960;14.836;2023-08-30T02:23:00;24.80;98.30
31725;DHT22;18306;40.960;14.836;2023-08-30T02:25:27;24.80;98.20
31725;DHT22;18306;40.960;14.836;2023-08-30T02:27:55;24.90;98.30
31725;DHT22;18306;40.960;14.836;2023-08-30T02:30:22;24.90;98.50
31725;DHT22;18306;40.960;14.836;2023-08-30T02:32:49;25.00;98.50
31725;DHT22;18306;40.960;14.836;2023-08-30T02:35:17;25.00;98.50
31725;DHT22;18306;40.960;14.836;2023-08-30T02:37:44;25.00;98.40
31725;DHT22;18306;40.960;14.836;2023-08-30T02:40:11;25.00;98.60
31725;DHT22;18306;40.960;14.836;2023-08-30T02:42:38;24.90;98.40
31725;DHT22;18306;40.960;14.836;2023-08-30T02:45:06;25.00;98.60
31725;DHT22;18306;40.960;14.836;2023-08-30T02:47:33;25.00;98.80
31725;DHT22;18306;40.960;14.836;2023-08-30T02:50:01;24.90;99.00
31725;DHT22;18306;40.960;14.836;2023-08-30T02:52:28;24.80;99.40
31725;DHT22;18306;40.960;14.836;2023-08-30T02:54:55;24.90;99.40
31725;DHT22;18306;40.960;14.836;2023-08-30T02:57:22;24.80;99.50
31725;DHT22;18306;40.960;14.836;2023-08-30T02:59:50;24.80;99.40
31725;DHT22;18306;40.960;14.836;2023-08-30T03:02:18;24.60;99.80
31725;DHT22;18306;40.960;14.836;2023-08-30T03:04:45;24.60;99.80
31725;DHT22;18306;40.960;14.836;2023-08-30T03:07:12;24.50;99.90
31725;DHT22;18306;40.960;14.836;2023-08-30T03:09:39;24.60;99.90
31725;DHT22;18306;40.960;14.836;2023-08-30T03:12:07;24.40;99.90
31725;DHT22;18306;40.960;14.836;2023-08-30T03:14:35;24.40;99.90
31725;DHT22;18306;40.960;14.836;2023-08-30T03:17:03;24.40;99.90
31725;DHT22;18306;40.960;14.836;2023-08-30T03:19:29;24.40;99.90
31725;DHT22;18306;40.960;14.836;2023-08-30T03:21:56;24.60;99.90
31725;DHT22;18306;40.960;14.836;2023-08-30T03:24:23;24.60;99.90
31725;DHT22;18306;40.960;14.836;2023-08-30T03:26:51;24.60;99.90
31725;DHT22;18306;40.960;14.836;2023-08-30T03:29:19;24.50;99.90
31725;DHT22;18306;40.960;14.836;2023-08-30T03:31:47;24.60;99.90
31725;DHT22;18306;40.960;14.836;2023-08-30T03:34:14;24.60;99.90
31725;DHT22;18306;40.960;14.836;2023-08-30T03:36:41;24.70;99.90
31725;DHT22;18306;40.960;14.836;2023-08-30T03:39:10;24.50;99.90
31725;DHT22;18306;40.960;14.836;2023-08-30T03:41:39;24.40;99.90
31725;DHT22;18306;40.960;14.836;2023-08-30T03:44:06;24.50;99.90
31725;DHT22;18306;40.960;14.836;2023-08-30T03:46:33;24.40;99.90
31725;DHT22;18306;40.960;14.836;2023-08-30T03:49:00;24.60;99.90
31725;DHT22;18306;40.960;14.836;2023-08-30T03:51:27;24.70;99.90
31725;DHT22;18306;40.960;14.836;2023-08-30T03:53:54;24.70;99.90
31725;DHT22;18306;40.960;14.836;2023-08-30T03:56:23;24.60;99.90
31725;DHT22;18306;40.960;14.836;2023-08-30T03:58:50;24.70;99.90
31725;DHT22;18306;40.960;14.836;2023-08-30T04:01:17;24.60;99.90
31725;DHT22;18306;40.960;14.836;2023-08-30T04:03:44;24.70;99.90
31725;DHT22;18306;40.960;14.836;2023-08-30T04:06:11;24.80;99.90
31725;DHT22;18306;40.960;14.836;2023-08-30T04:08:38;24.80;99.90
31725;DHT22;18306;40.960;14.836;2023-08-30T04:11:05;24.80;99.90
31725;DHT22;18306;40.960;14.836;2023-08-30T04:13:32;24.80;99.90
31725;DHT22;18306;40.960;14.836;2023-08-30T04:16:01;24.70;99.90
31725;DHT22;18306;40.960;14.836;2023-08-30T04:18:28;24.70;99.90
31725;DHT22;18306;40.960;14.836;2023-08-30T04:20:56;24.60;99.90
31725;DHT22;18306;40.960;14.836;2023-08-30T04:23:24;24.40;99.90
31725;DHT22;18306;40.960;14.836;2023-08-30T04:25:51;24.40;99.90
31725;DHT22;18306;40.960;14.836;2023-08-30T04:28:19;24.60;99.90
31725;DHT22;18306;40.960;14.836;2023-08-30T04:30:46;24.60;99.90
31725;DHT22;18306;40.960;14.836;2023-08-30T04:33:13;24.70;99.90
31725;DHT22;18306;40.960;14.836;2023-08-30T04:35:40;24.80;99.90
31725;DHT22;18306;40.960;14.836;2023-08-30T04:38:07;24.80;99.90
31725;DHT22;18306;40.960;14.836;2023-08-30T04:40:34;24.90;99.90
31725;DHT22;18306;40.960;14.836;2023-08-30T04:43:02;24.90;99.90
31725;DHT22;18306;40.960;14.836;2023-08-30T04:45:29;24.90;99.90
31725;DHT22;18306;40.960;14.836;2023-08-30T04:47:57;24.90;99.90
31725;DHT22;18306;40.960;14.836;2023-08-30T04:50:26;24.80;99.90
31725;DHT22;18306;40.960;14.836;2023-08-30T04:52:53;24.80;99.90
31725;DHT22;18306;40.960;14.836;2023-08-30T04:55:20;24.80;99.90
31725;DHT22;18306;40.960;14.836;2023-08-30T04:57:47;24.80;99.90
31725;DHT22;18306;40.960;14.836;2023-08-30T05:00:17;24.60;99.80
31725;DHT22;18306;40.960;14.836;2023-08-30T05:02:45;24.70;99.90
31725;DHT22;18306;40.960;14.836;2023-08-30T05:05:14;24.80;99.80
31725;DHT22;18306;40.960;14.836;2023-08-30T05:07:42;24.80;99.90
31725;DHT22;18306;40.960;14.836;2023-08-30T05:10:09;24.70;99.90
31725;DHT22;18306;40.960;14.836;2023-08-30T05:12:36;24.70;99.90
31725;DHT22;18306;40.960;14.836;2023-08-30T05:15:04;24.50;99.90
31725;DHT22;18306;40.960;14.836;2023-08-30T05:17:31;24.40;99.90
31725;DHT22;18306;40.960;14.836;2023-08-30T05:19:59;24.50;99.90
31725;DHT22;18306;40.960;14.836;2023-08-30T05:22:26;24.50;99.90
31725;DHT22;18306;40.960;14.836;2023-08-30T05:24:53;24.60;99.90
31725;DHT22;18306;40.960;14.836;2023-08-30T05:27:20;24.60;99.90
31725;DHT22;18306;40.960;14.836;2023-08-30T05:29:48;24.60;99.90
31725;DHT22;18306;40.960;14.836;2023-08-30T05:32:16;24.70;99.90
31725;DHT22;18306;40.960;14.836;2023-08-30T05:35:07;24.50;99.90
31725;DHT22;18306;40.960;14.836;2023-08-30T05:38:03;24.60;99.90
31725;DHT22;18306;40.960;14.836;2023-08-30T05:40:51;24.50;99.90
31725;DHT22;18306;40.960;14.836;2023-08-30T05:43:18;24.40;99.90
31725;DHT22;18306;40.960;14.836;2023-08-30T05:45:45;24.60;99.90
31725;DHT22;18306;40.960;14.836;2023-08-30T05:48:12;24.50;99.90
31725;DHT22;18306;40.960;14.836;2023-08-30T05:50:39;24.40;99.90
31725;DHT22;18306;40.960;14.836;2023-08-30T05:53:08;24.50;99.90
31725;DHT22;18306;40.960;14.836;2023-08-30T05:55:39;24.70;99.90
31725;DHT22;18306;40.960;14.836;2023-08-30T05:58:06;24.60;99.90
31725;DHT22;18306;40.960;14.836;2023-08-30T06:00:33;24.70;99.90
31725;DHT22;18306;40.960;14.836;2023-08-30T06:03:00;24.70;99.70
31725;DHT22;18306;40.960;14.836;2023-08-30T06:05:27;24.80;99.90
31725;DHT22;18306;40.960;14.836;2023-08-30T06:07:54;24.70;99.70
31725;DHT22;18306;40.960;14.836;2023-08-30T06:10:21;24.70;99.90
31725;DHT22;18306;40.960;14.836;2023-08-30T06:12:49;24.40;99.90
31725;DHT22;18306;40.960;14.836;2023-08-30T06:15:16;24.30;99.90
31725;DHT22;18306;40.960;14.836;2023-08-30T06:17:43;24.40;99.90
31725;DHT22;18306;40.960;14.836;2023-08-30T06:20:10;24.50;99.90
31725;DHT22;18306;40.960;14.836;2023-08-30T06:22:37;24.60;99.90
31725;DHT22;18306;40.960;14.836;2023-08-30T06:25:05;24.70;99.70
31725;DHT22;18306;40.960;14.836;2023-08-30T06:27:33;24.60;99.60
31725;DHT22;18306;40.960;14.836;2023-08-30T06:30:00;24.80;99.50
31725;DHT22;18306;40.960;14.836;2023-08-30T06:32:27;24.80;99.30
31725;DHT22;18306;40.960;14.836;2023-08-30T06:34:55;25.00;99.30
31725;DHT22;18306;40.960;14.836;2023-08-30T06:37:23;25.10;99.30
31725;DHT22;18306;40.960;14.836;2023-08-30T06:39:50;25.20;99.00
31725;DHT22;18306;40.960;14.836;2023-08-30T06:42:17;25.20;98.90
31725;DHT22;18306;40.960;14.836;2023-08-30T06:44:45;25.40;98.60
31725;DHT22;18306;40.960;14.836;2023-08-30T06:47:12;25.50;98.60
31725;DHT22;18306;40.960;14.836;2023-08-30T06:49:39;25.70;98.40
31725;DHT22;18306;40.960;14.836;2023-08-30T06:52:06;25.60;98.10
31725;DHT22;18306;40.960;14.836;2023-08-30T06:54:36;25.70;98.20
31725;DHT22;18306;40.960;14.836;2023-08-30T06:57:03;25.80;97.90
31725;DHT22;18306;40.960;14.836;2023-08-30T06:59:30;25.90;97.70
31725;DHT22;18306;40.960;14.836;2023-08-30T07:01:58;25.90;97.90
31725;DHT22;18306;40.960;14.836;2023-08-30T07:04:25;26.20;97.70
31725;DHT22;18306;40.960;14.836;2023-08-30T07:06:52;26.30;97.60
31725;DHT22;18306;40.960;14.836;2023-08-30T07:09:19;26.20;97.60
31725;DHT22;18306;40.960;14.836;2023-08-30T07:11:46;26.20;97.60
31725;DHT22;18306;40.960;14.836;2023-08-30T07:14:13;26.30;97.90
31725;DHT22;18306;40.960;14.836;2023-08-30T07:16:41;26.30;97.70
31725;DHT22;18306;40.960;14.836;2023-08-30T07:19:08;26.30;97.40
31725;DHT22;18306;40.960;14.836;2023-08-30T07:21:36;26.50;97.80
31725;DHT22;18306;40.960;14.836;2023-08-30T07:24:06;26.60;97.30
31725;DHT22;18306;40.960;14.836;2023-08-30T07:26:33;26.60;97.40
31725;DHT22;18306;40.960;14.836;2023-08-30T07:29:01;26.70;97.30
31725;DHT22;18306;40.960;14.836;2023-08-30T07:31:34;26.80;97.30
31725;DHT22;18306;40.960;14.836;2023-08-30T07:34:01;26.70;97.40
31725;DHT22;18306;40.960;14.836;2023-08-30T07:36:30;26.80;97.80
31725;DHT22;18306;40.960;14.836;2023-08-30T07:38:59;27.10;97.80
31725;DHT22;18306;40.960;14.836;2023-08-30T07:41:27;27.50;97.10
31725;DHT22;18306;40.960;14.836;2023-08-30T07:43:54;27.90;96.80
31725;DHT22;18306;40.960;14.836;2023-08-30T07:46:21;28.40;95.70
31725;DHT22;18306;40.960;14.836;2023-08-30T07:48:48;28.50;95.10
31725;DHT22;18306;40.960;14.836;2023-08-30T07:51:15;28.30;95.30
31725;DHT22;18306;40.960;14.836;2023-08-30T07:53:42;28.10;95.50
31725;DHT22;18306;40.960;14.836;2023-08-30T07:56:09;28.00;95.80
31725;DHT22;18306;40.960;14.836;2023-08-30T07:58:36;27.80;96.20
31725;DHT22;18306;40.960;14.836;2023-08-30T08:01:03;27.60;96.30
31725;DHT22;18306;40.960;14.836;2023-08-30T08:03:30;27.10;96.90
31725;DHT22;18306;40.960;14.836;2023-08-30T08:05:58;27.30;96.80
31725;DHT22;18306;40.960;14.836;2023-08-30T08:08:26;26.90;96.90
31725;DHT22;18306;40.960;14.836;2023-08-30T08:10:53;26.60;96.90
31725;DHT22;18306;40.960;14.836;2023-08-30T08:13:21;26.60;97.00
31725;DHT22;18306;40.960;14.836;2023-08-30T08:15:48;26.30;96.60
31725;DHT22;18306;40.960;14.836;2023-08-30T08:18:15;26.20;96.70
31725;DHT22;18306;40.960;14.836;2023-08-30T08:20:42;26.10;96.70
31725;DHT22;18306;40.960;14.836;2023-08-30T08:23:09;26.20;96.20
31725;DHT22;18306;40.960;14.836;2023-08-30T08:25:43;26.30;95.80
31725;DHT22;18306;40.960;14.836;2023-08-30T08:28:10;26.30;96.00
31725;DHT22;18306;40.960;14.836;2023-08-30T08:30:38;26.20;96.60
31725;DHT22;18306;40.960;14.836;2023-08-30T08:33:04;25.90;97.30
31725;DHT22;18306;40.960;14.836;2023-08-30T08:35:31;25.80;97.70
31725;DHT22;18306;40.960;14.836;2023-08-30T08:37:58;25.60;97.60
31725;DHT22;18306;40.960;14.836;2023-08-30T08:40:25;25.60;97.50
31725;DHT22;18306;40.960;14.836;2023-08-30T08:42:53;25.80;97.50
31725;DHT22;18306;40.960;14.836;2023-08-30T08:45:22;25.90;98.00
31725;DHT22;18306;40.960;14.836;2023-08-30T08:47:49;25.80;98.50
31725;DHT22;18306;40.960;14.836;2023-08-30T08:50:17;26.00;98.40
31725;DHT22;18306;40.960;14.836;2023-08-30T08:52:45;26.30;98.20
31725;DHT22;18306;40.960;14.836;2023-08-30T08:55:12;26.30;97.90
31725;DHT22;18306;40.960;14.836;2023-08-30T08:57:42;26.20;98.10
31725;DHT22;18306;40.960;14.836;2023-08-30T09:00:10;26.20;98.30
31725;DHT22;18306;40.960;14.836;2023-08-30T09:02:39;26.00;98.50
31725;DHT22;18306;40.960;14.836;2023-08-30T09:05:08;26.00;98.20
31725;DHT22;18306;40.960;14.836;2023-08-30T09:07:36;26.10;98.10
31725;DHT22;18306;40.960;14.836;2023-08-30T09:10:03;26.00;98.20
31725;DHT22;18306;40.960;14.836;2023-08-30T09:12:34;26.00;98.40
31725;DHT22;18306;40.960;14.836;2023-08-30T09:15:02;26.00;98.30
31725;DHT22;18306;40.960;14.836;2023-08-30T09:17:38;26.10;98.00
31725;DHT22;18306;40.960;14.836;2023-08-30T09:20:12;25.80;98.20
31725;DHT22;18306;40.960;14.836;2023-08-30T09:22:43;26.10;98.10
31725;DHT22;18306;40.960;14.836;2023-08-30T09:25:11;26.10;97.90
31725;DHT22;18306;40.960;14.836;2023-08-30T09:27:49;26.20;97.50
31725;DHT22;18306;40.960;14.836;2023-08-30T09:30:21;26.00;96.30
31725;DHT22;18306;40.960;14.836;2023-08-30T09:32:48;26.30;96.30
31725;DHT22;18306;40.960;14.836;2023-08-30T09:35:15;26.50;95.90
31725;DHT22;18306;40.960;14.836;2023-08-30T09:37:45;26.80;95.90
31725;DHT22;18306;40.960;14.836;2023-08-30T09:40:18;26.80;95.30
31725;DHT22;18306;40.960;14.836;2023-08-30T09:42:46;26.90;95.30
31725;DHT22;18306;40.960;14.836;2023-08-30T09:45:21;27.00;95.20
31725;DHT22;18306;40.960;14.836;2023-08-30T09:47:49;26.80;95.10
31725;DHT22;18306;40.960;14.836;2023-08-30T09:50:18;27.20;95.30
31725;DHT22;18306;40.960;14.836;2023-08-30T09:52:49;27.40;94.20
31725;DHT22;18306;40.960;14.836;2023-08-30T09:55:18;27.50;94.70
31725;DHT22;18306;40.960;14.836;2023-08-30T09:57:45;27.60;95.10
31725;DHT22;18306;40.960;14.836;2023-08-30T10:00:13;27.50;95.10
31725;DHT22;18306;40.960;14.836;2023-08-30T10:02:42;27.50;94.60
31725;DHT22;18306;40.960;14.836;2023-08-30T10:05:11;27.40;94.30
31725;DHT22;18306;40.960;14.836;2023-08-30T10:07:39;27.60;94.10
31725;DHT22;18306;40.960;14.836;2023-08-30T10:10:07;27.50;94.00
31725;DHT22;18306;40.960;14.836;2023-08-30T10:12:35;27.20;94.40
31725;DHT22;18306;40.960;14.836;2023-08-30T10:15:03;27.40;94.90
31725;DHT22;18306;40.960;14.836;2023-08-30T10:17:45;27.60;94.80
31725;DHT22;18306;40.960;14.836;2023-08-30T10:20:13;27.70;94.50
31725;DHT22;18306;40.960;14.836;2023-08-30T10:22:42;27.90;94.40
31725;DHT22;18306;40.960;14.836;2023-08-30T10:25:13;28.10;94.10
31725;DHT22;18306;40.960;14.836;2023-08-30T10:27:46;28.20;94.20
31725;DHT22;18306;40.960;14.836;2023-08-30T10:30:15;28.40;94.00
31725;DHT22;18306;40.960;14.836;2023-08-30T10:32:44;28.40;94.00
31725;DHT22;18306;40.960;14.836;2023-08-30T10:35:13;28.10;94.00
31725;DHT22;18306;40.960;14.836;2023-08-30T10:37:41;28.10;94.30
31725;DHT22;18306;40.960;14.836;2023-08-30T10:40:09;28.20;94.40
31725;DHT22;18306;40.960;14.836;2023-08-30T10:42:36;28.40;94.30
31725;DHT22;18306;40.960;14.836;2023-08-30T10:45:07;28.40;95.60
31725;DHT22;18306;40.960;14.836;2023-08-30T10:47:36;28.40;96.00
31725;DHT22;18306;40.960;14.836;2023-08-30T10:50:06;28.40;96.30
31725;DHT22;18306;40.960;14.836;2023-08-30T10:52:34;28.40;96.70
31725;DHT22;18306;40.960;14.836;2023-08-30T10:55:12;28.50;96.80
31725;DHT22;18306;40.960;14.836;2023-08-30T10:57:44;28.30;96.70
31725;DHT22;18306;40.960;14.836;2023-08-30T11:00:19;27.80;96.70
31725;DHT22;18306;40.960;14.836;2023-08-30T11:02:49;27.80;97.70
31725;DHT22;18306;40.960;14.836;2023-08-30T11:05:18;27.70;98.30
31725;DHT22;18306;40.960;14.836;2023-08-30T11:07:45;27.70;98.20
31725;DHT22;18306;40.960;14.836;2023-08-30T11:10:13;27.70;97.80
31725;DHT22;18306;40.960;14.836;2023-08-30T11:12:41;27.70;98.30
31725;DHT22;18306;40.960;14.836;2023-08-30T11:15:10;27.70;98.50
31725;DHT22;18306;40.960;14.836;2023-08-30T11:17:37;27.70;98.70
31725;DHT22;18306;40.960;14.836;2023-08-30T11:22:40;27.90;99.00
31725;DHT22;18306;40.960;14.836;2023-08-30T11:25:09;28.00;99.40
31725;DHT22;18306;40.960;14.836;2023-08-30T11:27:37;27.90;98.80
31725;DHT22;18306;40.960;14.836;2023-08-30T11:30:10;27.80;98.40
31725;DHT22;18306;40.960;14.836;2023-08-30T11:32:39;27.70;98.60
31725;DHT22;18306;40.960;14.836;2023-08-30T11:35:06;27.90;98.80
31725;DHT22;18306;40.960;14.836;2023-08-30T11:37:34;27.90;98.80
31725;DHT22;18306;40.960;14.836;2023-08-30T11:40:05;27.90;98.30
31725;DHT22;18306;40.960;14.836;2023-08-30T11:42:33;28.00;98.40
31725;DHT22;18306;40.960;14.836;2023-08-30T11:45:01;28.10;98.60
31725;DHT22;18306;40.960;14.836;2023-08-30T11:51:39;27.60;97.80
31725;DHT22;18306;40.960;14.836;2023-08-30T12:03:58;27.20;97.30
31725;DHT22;18306;40.960;14.836;2023-08-30T12:06:25;27.20;97.30
31725;DHT22;18306;40.960;14.836;2023-08-30T12:08:58;27.50;97.40
31725;DHT22;18306;40.960;14.836;2023-08-30T12:11:25;27.60;97.30
31725;DHT22;18306;40.960;14.836;2023-08-30T12:13:53;27.50;97.30
31725;DHT22;18306;40.960;14.836;2023-08-30T12:16:28;27.50;96.70
31725;DHT22;18306;40.960;14.836;2023-08-30T12:18:55;27.60;96.30
31725;DHT22;18306;40.960;14.836;2023-08-30T12:21:22;27.50;96.40
31725;DHT22;18306;40.960;14.836;2023-08-30T12:23:59;27.50;96.50
31725;DHT22;18306;40.960;14.836;2023-08-30T12:26:33;27.60;96.10
31725;DHT22;18306;40.960;14.836;2023-08-30T12:29:00;27.80;96.10
31725;DHT22;18306;40.960;14.836;2023-08-30T12:31:27;27.90;95.80
31725;DHT22;18306;40.960;14.836;2023-08-30T12:33:54;27.80;95.90
31725;DHT22;18306;40.960;14.836;2023-08-30T12:36:21;27.90;96.60
31725;DHT22;18306;40.960;14.836;2023-08-30T12:38:48;27.60;97.50
31725;DHT22;18306;40.960;14.836;2023-08-30T12:41:15;27.30;98.00
31725;DHT22;18306;40.960;14.836;2023-08-30T12:43:42;26.90;98.20
31725;DHT22;18306;40.960;14.836;2023-08-30T12:46:09;26.80;98.70
31725;DHT22;18306;40.960;14.836;2023-08-30T12:48:36;26.90;98.60
31725;DHT22;18306;40.960;14.836;2023-08-30T12:51:07;26.70;97.90
31725;DHT22;18306;40.960;14.836;2023-08-30T12:53:36;26.90;98.50
31725;DHT22;18306;40.960;14.836;2023-08-30T12:56:03;27.00;98.50
31725;DHT22;18306;40.960;14.836;2023-08-30T12:58:31;27.00;98.30
31725;DHT22;18306;40.960;14.836;2023-08-30T13:00:58;27.20;98.00
31725;DHT22;18306;40.960;14.836;2023-08-30T13:03:25;27.40;97.90
31725;DHT22;18306;40.960;14.836;2023-08-30T13:05:52;27.60;97.70
31725;DHT22;18306;40.960;14.836;2023-08-30T13:08:20;27.40;97.40
31725;DHT22;18306;40.960;14.836;2023-08-30T13:10:47;27.40;97.40
31725;DHT22;18306;40.960;14.836;2023-08-30T13:13:14;27.40;97.30
31725;DHT22;18306;40.960;14.836;2023-08-30T13:15:41;27.10;97.70
31725;DHT22;18306;40.960;14.836;2023-08-30T13:18:08;27.20;97.10
31725;DHT22;18306;40.960;14.836;2023-08-30T13:20:38;27.00;96.80
31725;DHT22;18306;40.960;14.836;2023-08-30T13:23:08;27.20;97.30
31725;DHT22;18306;40.960;14.836;2023-08-30T13:25:40;27.20;96.80
31725;DHT22;18306;40.960;14.836;2023-08-30T13:28:10;27.50;96.90
31725;DHT22;18306;40.960;14.836;2023-08-30T13:30:48;27.70;97.10
31725;DHT22;18306;40.960;14.836;2023-08-30T13:33:18;27.70;96.70
31725;DHT22;18306;40.960;14.836;2023-08-30T13:35:51;28.00;96.90
31725;DHT22;18306;40.960;14.836;2023-08-30T13:38:18;27.90;96.30
31725;DHT22;18306;40.960;14.836;2023-08-30T13:40:46;27.60;96.30
31725;DHT22;18306;40.960;14.836;2023-08-30T13:43:12;27.80;96.80
31725;DHT22;18306;40.960;14.836;2023-08-30T13:49:10;27.80;95.30
31725;DHT22;18306;40.960;14.836;2023-08-30T13:51:37;27.50;95.10
31725;DHT22;18306;40.960;14.836;2023-08-30T13:54:04;27.40;95.70
31725;DHT22;18306;40.960;14.836;2023-08-30T13:56:32;27.30;95.30
31725;DHT22;18306;40.960;14.836;2023-08-30T13:58:59;27.50;95.50
31725;DHT22;18306;40.960;14.836;2023-08-30T14:01:26;27.20;95.20
31725;DHT22;18306;40.960;14.836;2023-08-30T14:03:53;27.30;94.90
31725;DHT22;18306;40.960;14.836;2023-08-30T14:06:20;27.40;94.60
31725;DHT22;18306;40.960;14.836;2023-08-30T14:08:48;27.60;94.80
31725;DHT22;18306;40.960;14.836;2023-08-30T14:11:15;27.80;94.40
31725;DHT22;18306;40.960;14.836;2023-08-30T14:13:42;27.70;94.40
31725;DHT22;18306;40.960;14.836;2023-08-30T14:16:09;27.50;94.20
31725;DHT22;18306;40.960;14.836;2023-08-30T14:18:36;27.30;94.00
31725;DHT22;18306;40.960;14.836;2023-08-30T14:21:04;27.00;94.10
31725;DHT22;18306;40.960;14.836;2023-08-30T14:23:31;26.90;93.70
31725;DHT22;18306;40.960;14.836;2023-08-30T14:25:59;26.90;93.80
31725;DHT22;18306;40.960;14.836;2023-08-30T14:28:33;27.00;93.80
31725;DHT22;18306;40.960;14.836;2023-08-30T14:31:01;27.20;93.50
31725;DHT22;18306;40.960;14.836;2023-08-30T14:33:31;27.10;93.40
31725;DHT22;18306;40.960;14.836;2023-08-30T14:36:00;27.00;93.40
31725;DHT22;18306;40.960;14.836;2023-08-30T14:38:30;26.90;93.40
31725;DHT22;18306;40.960;14.836;2023-08-30T14:40:59;27.00;93.50
31725;DHT22;18306;40.960;14.836;2023-08-30T14:43:27;27.00;92.90
31725;DHT22;18306;40.960;14.836;2023-08-30T14:48:28;27.10;91.90
31725;DHT22;18306;40.960;14.836;2023-08-30T14:50:55;27.10;91.80
31725;DHT22;18306;40.960;14.836;2023-08-30T14:53:28;27.10;91.40
31725;DHT22;18306;40.960;14.836;2023-08-30T14:55:55;26.80;91.40
31725;DHT22;18306;40.960;14.836;2023-08-30T14:58:22;26.70;91.00
31725;DHT22;18306;40.960;14.836;2023-08-30T15:00:49;26.70;91.00
31725;DHT22;18306;40.960;14.836;2023-08-30T15:03:16;26.60;90.70
31725;DHT22;18306;40.960;14.836;2023-08-30T15:05:45;26.50;90.50
31725;DHT22;18306;40.960;14.836;2023-08-30T15:08:24;26.50;90.50
31725;DHT22;18306;40.960;14.836;2023-08-30T15:10:51;26.50;91.00
31725;DHT22;18306;40.960;14.836;2023-08-30T15:13:19;26.30;91.50
31725;DHT22;18306;40.960;14.836;2023-08-30T15:15:46;26.80;91.50
31725;DHT22;18306;40.960;14.836;2023-08-30T15:18:13;26.90;91.30
31725;DHT22;18306;40.960;14.836;2023-08-30T15:20:40;26.90;91.10
31725;DHT22;18306;40.960;14.836;2023-08-30T15:23:07;26.60;91.30
31725;DHT22;18306;40.960;14.836;2023-08-30T15:25:34;26.70;91.50
31725;DHT22;18306;40.960;14.836;2023-08-30T15:28:01;26.90;91.40
31725;DHT22;18306;40.960;14.836;2023-08-30T15:30:30;27.10;91.50
31725;DHT22;18306;40.960;14.836;2023-08-30T15:32:57;27.00;91.50
31725;DHT22;18306;40.960;14.836;2023-08-30T15:35:24;26.80;91.60
31725;DHT22;18306;40.960;14.836;2023-08-30T15:37:51;26.60;91.60
31725;DHT22;18306;40.960;14.836;2023-08-30T15:40:18;26.80;91.70
31725;DHT22;18306;40.960;14.836;2023-08-30T15:42:45;26.80;91.70
31725;DHT22;18306;40.960;14.836;2023-08-30T15:45:12;26.90;91.80
31725;DHT22;18306;40.960;14.836;2023-08-30T15:47:39;26.80;91.60
31725;DHT22;18306;40.960;14.836;2023-08-30T15:50:07;26.90;91.20